Chengwatana, Minnesota
Current Conditions -  °F | °C
As of 2:15 PM on Thursday 23 Oct 2014 (Local Time) from KROS Reporting Station
Clear Clear  
Wind Chill: 61°   Ceiling: Unl
Heat Index: 61°   Visibility: 10mi
Dew Point: 52°   Wind: 0mph
Humidity: 73%   Direction: NA
Pressure: 29.96"   Gusts: NA
Location:  45.8356°N, 92.9649°W
Report Text: KROS 231915Z AUTO 00000KT 10SM CLR 16/11 A2996 RMK AO2 T01610113
Loading
Personal Weather Stations






























Interactive Weather Map
Tropical Storm Tracking
New forecast layout! Learn more

10-Day Weather Forecast

Advertisements
Track Severe Weather on mobile